Time;durP1;ratioP1;P1;durP2;ratioP2;P2;SDS_P1;SDS_P2;PMS_P1;PMS_P2;Temp;Humidity;BMP_temperature;BMP_pressure;BME280_temperature;BME280_humidity;BME280_pressure;Samples;Min_cycle;Max_cycle;Signal;HPM_P1;HPM_P2
2023/12/30 00:00:50;;;;;;;0.45;0.10;;;;;;;8.54;89.74;101046.13;5098500;27;96589;-28
2023/12/30 00:03:15;;;;;;;1.58;0.22;;;;;;;8.54;88.33;101056.06;5098716;27;96795;-28
2023/12/30 00:05:40;;;;;;;1.00;0.47;;;;;;;8.50;89.65;101056.19;5096978;27;97799;-30
2023/12/30 00:08:06;;;;;;;2.08;0.15;;;;;;;8.54;89.53;101053.34;5097399;27;99153;-28
2023/12/30 00:10:31;;;;;;;1.30;0.50;;;;;;;8.52;88.90;101057.94;5097383;27;96585;-28
2023/12/30 00:12:56;;;;;;;0.00;0.00;;;;;;;8.49;88.18;101064.38;5098271;27;96716;-28
2023/12/30 00:15:22;;;;;;;0.90;0.40;;;;;;;8.45;88.34;101069.03;5097456;27;99230;-28
2023/12/30 00:17:47;;;;;;;0.10;0.10;;;;;;;8.46;88.98;101067.22;5097496;27;99289;-28
2023/12/30 00:20:13;;;;;;;0.22;0.00;;;;;;;8.46;88.24;101076.22;5098118;27;96644;-28
2023/12/30 00:22:38;;;;;;;0.20;0.00;;;;;;;8.43;87.67;101087.13;5097881;27;96803;-28
2023/12/30 00:25:04;;;;;;;0.65;0.20;;;;;;;8.46;89.13;101070.81;5097488;27;99155;-27
2023/12/30 00:27:29;;;;;;;0.05;0.05;;;;;;;8.41;88.90;101070.13;5079298;27;100753;-28
2023/12/30 00:29:54;;;;;;;0.63;0.15;;;;;;;8.44;89.05;101071.84;5097907;27;96479;-27
2023/12/30 00:32:20;;;;;;;0.68;0.10;;;;;;;8.40;89.03;101081.91;5097944;27;96770;-28
2023/12/30 00:34:45;;;;;;;2.55;0.32;;;;;;;8.37;89.05;101071.22;5096994;27;97856;-28
2023/12/30 00:37:13;;;;;;;0.28;0.10;;;;;;;8.34;88.99;101059.69;5097400;27;98609;-28
2023/12/30 00:39:41;;;;;;;0.45;0.17;;;;;;;8.35;87.96;101073.13;5078683;27;97857;-27
2023/12/30 00:42:07;;;;;;;1.10;0.32;;;;;;;8.32;88.69;101073.28;5079194;27;96818;-28
2023/12/30 00:44:32;;;;;;;0.40;0.25;;;;;;;8.32;88.56;101073.28;5097106;27;99521;-27
2023/12/30 00:46:57;;;;;;;1.50;0.20;;;;;;;8.30;88.49;101069.78;5097458;27;97801;-28
2023/12/30 00:49:23;;;;;;;0.25;0.10;;;;;;;8.33;87.72;101076.84;5097786;27;96706;-27
2023/12/30 00:51:48;;;;;;;4.35;0.15;;;;;;;8.30;88.30;101084.13;5097341;27;96847;-28
2023/12/30 00:54:13;;;;;;;0.22;0.10;;;;;;;8.34;87.97;101092.06;5096995;27;99809;-28
2023/12/30 00:56:39;;;;;;;0.20;0.08;;;;;;;8.31;88.14;101098.50;5097004;27;97335;-28
2023/12/30 00:59:04;;;;;;;0.60;0.08;;;;;;;8.34;87.62;101100.16;5096655;27;96671;-27
2023/12/30 01:01:29;;;;;;;0.00;0.00;;;;;;;8.29;86.72;101101.28;5097486;27;96718;-28
2023/12/30 01:03:54;;;;;;;2.08;0.08;;;;;;;8.35;88.26;101104.63;5097002;27;97355;-29
2023/12/30 01:06:20;;;;;;;0.22;0.00;;;;;;;8.24;87.54;101106.00;5096584;27;106364;-29
2023/12/30 01:08:45;;;;;;;0.20;0.05;;;;;;;8.30;87.45;101099.47;5097157;27;96504;-28
2023/12/30 01:11:12;;;;;;;3.42;0.10;;;;;;;8.24;87.76;101088.94;5097239;27;96780;-27
2023/12/30 01:13:37;;;;;;;3.50;0.28;;;;;;;8.26;86.90;101092.44;5078147;27;101043;-28
2023/12/30 01:16:06;;;;;;;0.00;0.00;;;;;;;8.26;87.95;101090.63;5097340;27;97133;-27
2023/12/30 01:18:31;;;;;;;1.13;0.22;;;;;;;8.25;87.50;101093.41;5096735;27;97498;-29
2023/12/30 01:20:57;;;;;;;0.60;0.22;;;;;;;8.24;86.90;101097.03;5096881;27;96807;-28
2023/12/30 01:23:22;;;;;;;7.32;0.60;;;;;;;8.23;86.83;101100.69;5096308;27;97357;-29
2023/12/30 01:25:48;;;;;;;0.13;0.13;;;;;;;8.24;87.44;101091.66;5096658;27;99273;-28
2023/12/30 01:28:13;;;;;;;1.70;0.45;;;;;;;8.28;87.68;101107.63;5078222;27;96556;-27
2023/12/30 01:30:39;;;;;;;4.85;0.30;;;;;;;8.25;87.90;101105.06;5096550;27;96797;-29
2023/12/30 01:33:05;;;;;;;0.15;0.15;;;;;;;8.20;87.38;101099.03;5078025;27;100971;-28
2023/12/30 01:35:30;;;;;;;0.32;0.05;;;;;;;8.21;87.42;101108.84;5096245;27;98115;-28
2023/12/30 01:37:56;;;;;;;1.00;0.30;;;;;;;8.20;87.77;101103.53;5096907;27;96493;-28
2023/12/30 01:40:21;;;;;;;0.47;0.38;;;;;;;8.21;87.92;101108.84;5096995;27;96894;-28
2023/12/30 01:42:46;;;;;;;0.40;0.25;;;;;;;8.21;87.41;101113.38;5096673;27;97332;-29
2023/12/30 01:45:12;;;;;;;0.00;0.00;;;;;;;8.20;86.89;101127.81;5096143;27;99201;-29
2023/12/30 01:47:38;;;;;;;0.60;0.13;;;;;;;8.20;87.35;101127.81;5096437;27;96621;-28
2023/12/30 01:50:04;;;;;;;0.05;0.03;;;;;;;8.21;87.22;101124.19;5096271;27;96782;-28
2023/12/30 01:52:31;;;;;;;2.20;0.47;;;;;;;8.15;86.89;101138.84;5077491;27;101718;-27
2023/12/30 01:54:57;;;;;;;1.20;0.45;;;;;;;8.09;86.94;101131.03;5077529;27;101127;-27
2023/12/30 01:57:23;;;;;;;0.13;0.10;;;;;;;8.11;87.32;101133.66;5096183;27;96536;-28
2023/12/30 01:59:49;;;;;;;1.17;0.10;;;;;;;8.12;87.99;101148.88;5096270;27;96806;-28
2023/12/30 02:02:14;;;;;;;0.47;0.30;;;;;;;8.14;88.32;101150.56;5077445;27;101302;-27
2023/12/30 02:04:40;;;;;;;0.28;0.10;;;;;;;8.11;87.46;101147.16;5096050;27;99135;-28
2023/12/30 02:07:05;;;;;;;0.38;0.20;;;;;;;8.12;87.89;101156.97;5096342;27;96462;-27
2023/12/30 02:09:31;;;;;;;0.10;0.10;;;;;;;8.13;87.80;101151.53;5096139;27;96767;-28
2023/12/30 02:11:57;;;;;;;0.15;0.15;;;;;;;8.17;88.04;101161.22;5095597;27;97272;-29
2023/12/30 02:14:26;;;;;;;1.58;0.28;;;;;;;8.15;87.83;101156.84;5096048;27;97993;-28
2023/12/30 02:16:52;;;;;;;0.57;0.03;;;;;;;8.09;87.03;101156.19;5096136;27;96536;-27
2023/12/30 02:19:17;;;;;;;0.90;0.40;;;;;;;8.19;87.38;101163.84;5096298;27;96727;-28
2023/12/30 02:21:42;;;;;;;0.03;0.03;;;;;;;8.15;86.61;101162.22;5095697;27;99534;-28
2023/12/30 02:24:08;;;;;;;1.00;0.10;;;;;;;8.14;87.04;101160.50;5095941;27;97753;-29
2023/12/30 02:26:33;;;;;;;0.35;0.15;;;;;;;8.18;87.08;101173.78;5096018;27;96485;-27
2023/12/30 02:28:58;;;;;;;0.55;0.10;;;;;;;8.15;86.44;101181.13;5097220;27;96807;-28
2023/12/30 02:31:24;;;;;;;1.65;0.65;;;;;;;8.12;86.96;101168.66;5099619;27;97846;-28
2023/12/30 02:33:49;;;;;;;0.05;0.05;;;;;;;8.17;86.70;101179.22;5099163;27;97784;-27
2023/12/30 02:36:14;;;;;;;1.30;0.13;;;;;;;8.13;86.76;101173.13;5099741;27;96956;-28
2023/12/30 02:38:39;;;;;;;0.13;0.10;;;;;;;8.15;87.10;101178.41;5099373;27;96830;-28
2023/12/30 02:41:05;;;;;;;0.13;0.08;;;;;;;8.13;86.76;101172.22;5099361;27;106199;-28
2023/12/30 02:43:36;;;;;;;0.00;0.00;;;;;;;8.06;87.58;101158.16;5099533;27;97314;-28
2023/12/30 02:46:02;;;;;;;2.22;0.20;;;;;;;8.14;87.29;101182.06;5080898;27;96643;-28
2023/12/30 02:48:27;;;;;;;0.65;0.32;;;;;;;8.16;87.22;101177.50;5099118;27;96859;-28
2023/12/30 02:50:52;;;;;;;1.48;0.43;;;;;;;8.14;87.22;101176.69;5098908;27;99360;-27
2023/12/30 02:53:18;;;;;;;0.25;0.20;;;;;;;8.13;87.04;101183.91;5099315;27;99151;-27
2023/12/30 02:55:43;;;;;;;4.75;0.60;;;;;;;8.14;86.99;101184.78;5099390;27;96499;-27
2023/12/30 02:58:09;;;;;;;0.70;0.35;;;;;;;8.11;87.06;101166.91;5098611;27;96825;-29
2023/12/30 03:00:34;;;;;;;0.52;0.20;;;;;;;8.12;86.93;101183.97;5098601;27;99485;-28
2023/12/30 03:02:59;;;;;;;1.10;0.32;;;;;;;8.15;86.98;101175.72;5098807;27;97955;-28
2023/12/30 03:05:27;;;;;;;0.20;0.10;;;;;;;8.11;86.65;101166.03;5099733;27;96438;-27
2023/12/30 03:07:53;;;;;;;0.00;0.00;;;;;;;8.17;86.48;101184.63;5099065;27;96785;-28
2023/12/30 03:10:18;;;;;;;0.03;0.03;;;;;;;8.16;86.38;101181.06;5098880;27;97855;-27
2023/12/30 03:12:43;;;;;;;0.13;0.10;;;;;;;8.19;86.36;101188.13;5099019;27;97834;-28
2023/12/30 03:15:09;;;;;;;0.03;0.03;;;;;;;8.13;86.16;101183.91;5099065;27;96540;-27
2023/12/30 03:17:34;;;;;;;2.25;0.40;;;;;;;8.11;86.58;101177.69;5099468;27;96830;-28
2023/12/30 03:20:03;;;;;;;0.47;0.08;;;;;;;8.14;87.18;101182.06;5098624;27;99605;-28
2023/12/30 03:22:29;;;;;;;2.80;0.32;;;;;;;8.08;87.61;101194.03;5098415;27;98869;-27
2023/12/30 03:24:55;;;;;;;3.00;0.13;;;;;;;7.97;87.88;101191.81;5098263;27;96614;-27
2023/12/30 03:27:20;;;;;;;0.43;0.15;;;;;;;7.95;88.53;101198.22;5098773;27;96804;-29
2023/12/30 03:29:45;;;;;;;1.23;0.25;;;;;;;7.93;88.42;101200.09;5098503;27;99090;-28
2023/12/30 03:32:10;;;;;;;0.57;0.13;;;;;;;7.85;88.86;101195.94;5098220;27;100185;-28
2023/12/30 03:34:36;;;;;;;0.00;0.00;;;;;;;7.83;88.88;101192.44;5099003;27;96439;-29
2023/12/30 03:37:03;;;;;;;0.30;0.20;;;;;;;7.82;89.56;101193.38;5098598;27;96769;-29
2023/12/30 03:39:28;;;;;;;2.00;0.10;;;;;;;7.79;89.54;101188.09;5098146;27;99867;-28
2023/12/30 03:41:53;;;;;;;1.02;0.40;;;;;;;7.80;89.79;101200.66;5097275;27;99599;-28
2023/12/30 03:44:19;;;;;;;0.47;0.30;;;;;;;7.77;89.59;101175.63;5098657;27;96567;-28
2023/12/30 03:46:44;;;;;;;0.10;0.10;;;;;;;7.76;90.07;101182.00;5098252;27;96771;-28
2023/12/30 03:49:09;;;;;;;0.08;0.08;;;;;;;7.70;90.13;101185.84;5097514;27;99279;-28
2023/12/30 03:51:35;;;;;;;0.10;0.10;;;;;;;7.61;90.27;101179.03;5098058;27;98354;-28
2023/12/30 03:54:00;;;;;;;0.30;0.25;;;;;;;7.70;90.39;101184.94;5098724;27;96426;-27
2023/12/30 03:56:25;;;;;;;2.30;0.22;;;;;;;7.66;89.96;101181.53;5098381;27;96874;-28
2023/12/30 03:58:52;;;;;;;0.20;0.10;;;;;;;7.67;89.99;101177.88;5097630;27;99262;-28
2023/12/30 04:01:18;;;;;;;0.20;0.15;;;;;;;7.69;89.98;101180.50;5079357;27;100834;-28
2023/12/30 04:03:43;;;;;;;0.20;0.10;;;;;;;7.68;90.02;101192.25;5098257;27;96469;-27
2023/12/30 04:06:15;;;;;;;0.75;0.03;;;;;;;7.69;90.10;101189.47;5098709;27;96834;-28
2023/12/30 04:08:41;;;;;;;0.30;0.30;;;;;;;7.70;90.21;101188.53;5079427;27;98914;-28
2023/12/30 04:11:06;;;;;;;0.52;0.10;;;;;;;7.70;90.12;101196.63;5098009;27;97328;-29
2023/12/30 04:13:31;;;;;;;0.20;0.17;;;;;;;7.72;90.29;101201.94;5097918;27;96613;-27
2023/12/30 04:15:57;;;;;;;0.20;0.20;;;;;;;7.64;89.82;101181.56;5097958;27;96778;-29
2023/12/30 04:18:22;;;;;;;0.80;0.10;;;;;;;7.63;90.19;101185.22;5097813;27;97851;-28
2023/12/30 04:20:47;;;;;;;0.45;0.20;;;;;;;7.64;89.97;101197.75;5097326;27;106142;-29
2023/12/30 04:23:13;;;;;;;0.20;0.13;;;;;;;7.62;90.24;101190.69;5097821;27;96547;-27
2023/12/30 04:25:38;;;;;;;2.60;0.40;;;;;;;7.63;90.42;101187.94;5097851;27;97108;-28
2023/12/30 04:28:04;;;;;;;0.10;0.10;;;;;;;7.71;90.52;101213.69;5097802;27;98440;-29
2023/12/30 04:30:29;;;;;;;0.08;0.08;;;;;;;7.68;90.55;101206.59;5097706;27;97807;-28
2023/12/30 04:32:54;;;;;;;5.85;0.13;;;;;;;7.63;90.64;101205.94;5098062;27;96533;-28
2023/12/30 04:35:20;;;;;;;0.00;0.00;;;;;;;7.59;90.83;101207.88;5097931;27;96810;-28
2023/12/30 04:37:45;;;;;;;0.08;0.00;;;;;;;7.60;90.78;101211.44;5096795;27;99681;-28
2023/12/30 04:40:11;;;;;;;6.85;0.60;;;;;;;7.58;90.92;101216.00;5097081;27;99370;-27
2023/12/30 04:42:36;;;;;;;0.08;0.08;;;;;;;7.59;90.74;101207.00;5097760;27;96430;-28
2023/12/30 04:45:02;;;;;;;2.25;0.63;;;;;;;7.63;90.40;101214.88;5097211;27;96791;-28
2023/12/30 04:47:28;;;;;;;0.00;0.00;;;;;;;7.63;90.49;101212.19;5078630;27;101313;-27
2023/12/30 04:49:53;;;;;;;0.05;0.05;;;;;;;7.63;90.56;101214.03;5097306;27;97361;-28
2023/12/30 04:52:18;;;;;;;0.00;0.00;;;;;;;7.63;89.81;101212.19;5096492;27;96792;-28
2023/12/30 04:54:45;;;;;;;0.30;0.03;;;;;;;7.61;89.32;101211.38;5098195;27;96774;-28
2023/12/30 04:57:10;;;;;;;0.10;0.05;;;;;;;7.71;88.63;101221.78;5096612;27;97908;-28
2023/12/30 04:59:35;;;;;;;0.05;0.00;;;;;;;7.66;88.67;101216.56;5096948;27;99595;-28
2023/12/30 05:02:01;;;;;;;0.80;0.30;;;;;;;7.76;88.22;101225.13;5097056;27;96577;-27
2023/12/30 05:04:26;;;;;;;0.10;0.00;;;;;;;7.75;87.49;101235.06;5097756;27;96723;-28
2023/12/30 05:06:51;;;;;;;0.00;0.00;;;;;;;7.75;88.17;101226.09;5096911;27;99348;-29
2023/12/30 05:09:17;;;;;;;0.88;0.38;;;;;;;7.75;88.12;101232.34;5097340;27;97472;-28
2023/12/30 05:11:44;;;;;;;0.47;0.20;;;;;;;7.77;87.38;101235.88;5097421;27;96445;-28
2023/12/30 05:14:10;;;;;;;0.00;0.00;;;;;;;7.80;88.05;101237.53;5096933;27;96803;-29
2023/12/30 05:16:49;;;;;;;0.30;0.10;;;;;;;7.76;88.22;101228.69;5096598;27;98999;-28
2023/12/30 05:19:15;;;;;;;0.15;0.08;;;;;;;7.84;88.30;101236.44;5078652;27;101101;-29
2023/12/30 05:21:41;;;;;;;0.13;0.10;;;;;;;7.80;88.50;101235.72;5078462;27;96670;-29
2023/12/30 05:24:06;;;;;;;0.00;0.00;;;;;;;7.86;88.94;101231.88;5096955;27;96782;-28
2023/12/30 05:26:32;;;;;;;0.65;0.43;;;;;;;7.80;89.50;101240.25;5096173;27;98847;-28
2023/12/30 05:28:57;;;;;;;0.10;0.10;;;;;;;7.85;89.54;101240.91;5096741;27;97215;-28
2023/12/30 05:31:23;;;;;;;0.00;0.00;;;;;;;7.80;89.84;101251.03;5078236;27;96583;-28
2023/12/30 05:33:48;;;;;;;0.20;0.20;;;;;;;7.85;89.66;101251.69;5078293;27;96895;-27
2023/12/30 05:36:14;;;;;;;9.15;0.17;;;;;;;7.88;89.84;101254.25;5096514;27;97275;-28
2023/12/30 05:38:39;;;;;;;0.00;0.00;;;;;;;7.84;89.92;101253.53;5096776;27;97071;-28
2023/12/30 05:41:04;;;;;;;0.10;0.05;;;;;;;7.85;90.21;101251.69;5096896;27;96653;-28
2023/12/30 05:43:30;;;;;;;0.15;0.15;;;;;;;7.89;90.13;101261.41;5097346;27;96834;-29
2023/12/30 05:45:55;;;;;;;0.30;0.10;;;;;;;7.88;90.13;101248.84;5096419;27;97341;-28
2023/12/30 05:48:20;;;;;;;0.00;0.00;;;;;;;7.77;90.80;101259.22;5096219;27;99135;-27
2023/12/30 05:50:46;;;;;;;1.38;0.40;;;;;;;7.66;91.56;101260.56;5096091;27;96838;-28
2023/12/30 05:53:11;;;;;;;1.17;0.35;;;;;;;7.61;92.14;101259.03;5096675;27;96688;-27
2023/12/30 05:55:38;;;;;;;0.82;0.13;;;;;;;7.49;92.51;101244.25;5096258;27;97392;-28
2023/12/30 05:58:04;;;;;;;0.50;0.13;;;;;;;7.45;92.76;101253.41;5077179;27;100906;-28
2023/12/30 06:00:29;;;;;;;0.00;0.00;;;;;;;7.37;93.45;101250.16;5077740;27;96635;-29
2023/12/30 06:02:54;;;;;;;0.20;0.10;;;;;;;7.39;93.66;101253.69;5096265;27;96827;-28
2023/12/30 06:05:20;;;;;;;0.80;0.17;;;;;;;7.35;93.93;101257.44;5095582;27;97416;-28
2023/12/30 06:07:46;;;;;;;1.95;0.65;;;;;;;7.33;94.14;101259.31;5096571;27;97821;-28
2023/12/30 06:10:12;;;;;;;0.22;0.10;;;;;;;7.34;94.44;101261.06;5077727;27;96753;-28
2023/12/30 06:12:37;;;;;;;0.43;0.20;;;;;;;7.34;94.35;101275.44;5077492;27;96792;-28
2023/12/30 06:15:03;;;;;;;0.10;0.10;;;;;;;7.33;94.55;101276.34;5095855;27;97320;-28
2023/12/30 06:17:29;;;;;;;0.10;0.00;;;;;;;7.33;94.81;101292.50;5095938;27;97799;-27
2023/12/30 06:19:55;;;;;;;2.00;0.22;;;;;;;7.29;94.72;101279.22;5096148;27;96728;-27
2023/12/30 06:22:20;;;;;;;1.65;0.95;;;;;;;7.27;95.26;101291.88;5096305;27;96783;-29
2023/12/30 06:24:45;;;;;;;0.00;0.00;;;;;;;7.17;95.80;101281.47;5095815;27;98685;-28
2023/12/30 06:27:11;;;;;;;0.68;0.22;;;;;;;7.17;96.02;101284.16;5095836;27;97930;-28
2023/12/30 06:29:36;;;;;;;0.77;0.15;;;;;;;7.22;96.09;101283.97;5096046;27;96670;-29
2023/12/30 06:32:01;;;;;;;2.20;0.52;;;;;;;7.23;96.30;101292.03;5096541;27;96765;-28
2023/12/30 06:34:27;;;;;;;2.20;0.40;;;;;;;7.19;96.38;101268.81;5095789;27;97785;-28
2023/12/30 06:36:52;;;;;;;1.55;0.50;;;;;;;7.25;96.28;101272.25;5095649;27;99066;-28
2023/12/30 06:39:18;;;;;;;0.70;0.35;;;;;;;7.28;96.52;101280.19;5095021;27;96663;-28
2023/12/30 06:41:44;;;;;;;0.05;0.05;;;;;;;7.22;97.79;101273.22;5095660;27;96779;-28
2023/12/30 06:44:09;;;;;;;0.22;0.15;;;;;;;7.18;97.66;101280.56;5095634;27;97401;-29
2023/12/30 06:46:35;;;;;;;0.20;0.20;;;;;;;7.18;97.91;101283.25;5095607;27;97776;-29
2023/12/30 06:49:01;;;;;;;0.15;0.08;;;;;;;7.13;97.75;101279.88;5096055;27;96632;-28
2023/12/30 06:51:27;;;;;;;0.00;0.00;;;;;;;7.16;97.99;101277.03;5077052;27;96871;-28
2023/12/30 06:53:53;;;;;;;2.60;0.20;;;;;;;7.15;98.48;101278.00;5095352;27;99259;-29
2023/12/30 06:56:18;;;;;;;0.32;0.20;;;;;;;7.11;98.08;101262.03;5076988;27;100916;-28
2023/12/30 06:58:45;;;;;;;0.08;0.08;;;;;;;7.12;98.05;101270.00;5095601;27;96512;-28
2023/12/30 07:01:14;;;;;;;0.10;0.10;;;;;;;7.09;98.69;101264.75;5077208;27;96883;-28
2023/12/30 07:03:39;;;;;;;5.90;0.47;;;;;;;7.05;99.01;101268.50;5094908;27;97879;-28
2023/12/30 07:06:05;;;;;;;0.55;0.17;;;;;;;7.05;99.06;101265.81;5095124;27;99300;-28
2023/12/30 07:08:30;;;;;;;4.15;0.38;;;;;;;7.02;98.95;101258.75;5095513;27;96532;-28
2023/12/30 07:10:55;;;;;;;0.00;0.00;;;;;;;7.06;99.10;101270.28;5095168;27;96846;-27
2023/12/30 07:13:21;;;;;;;1.55;0.38;;;;;;;7.04;99.27;101276.66;5095249;27;102856;-28
2023/12/30 07:15:47;;;;;;;0.20;0.00;;;;;;;7.04;99.48;101271.28;5097389;27;97868;-28
2023/12/30 07:18:13;;;;;;;0.00;0.00;;;;;;;6.99;99.67;101271.47;5098948;27;96544;-30
2023/12/30 07:20:38;;;;;;;0.57;0.20;;;;;;;6.96;99.74;101279.66;5099226;27;96780;-27
2023/12/30 07:23:05;;;;;;;0.60;0.28;;;;;;;6.97;99.99;101276.91;5098457;27;99584;-28
2023/12/30 07:25:31;;;;;;;0.20;0.10;;;;;;;6.93;99.85;101277.09;5098213;27;99273;-27
2023/12/30 07:27:56;;;;;;;0.32;0.10;;;;;;;6.93;99.89;101285.16;5098260;27;96472;-28
2023/12/30 07:30:21;;;;;;;0.55;0.22;;;;;;;6.89;100.00;101279.03;5098771;27;96821;-28
2023/12/30 07:32:46;;;;;;;0.00;0.00;;;;;;;6.90;100.00;101296.06;5098590;27;97438;-27
2023/12/30 07:35:12;;;;;;;0.05;0.05;;;;;;;6.85;100.00;101296.25;5098350;27;98739;-28
2023/12/30 07:37:37;;;;;;;0.52;0.13;;;;;;;6.91;100.00;101308.56;5098993;27;96494;-28
2023/12/30 07:40:03;;;;;;;0.00;0.00;;;;;;;6.82;100.00;101307.13;5098312;27;96833;-29
2023/12/30 07:42:29;;;;;;;1.02;0.28;;;;;;;6.80;100.00;101306.31;5079694;27;102240;-28
2023/12/30 07:44:55;;;;;;;2.13;0.17;;;;;;;6.77;100.00;101304.63;5098704;27;99239;-28
2023/12/30 07:47:20;;;;;;;0.08;0.03;;;;;;;6.83;100.00;101329.56;5098842;27;96575;-28
2023/12/30 07:49:49;;;;;;;0.52;0.28;;;;;;;6.81;100.00;101322.38;5098659;27;96895;-28
2023/12/30 07:52:14;;;;;;;0.30;0.10;;;;;;;6.80;100.00;101328.72;5097637;27;97996;-28
2023/12/30 07:54:39;;;;;;;0.17;0.10;;;;;;;6.78;100.00;101340.50;5098144;27;98330;-27
2023/12/30 07:57:05;;;;;;;0.15;0.08;;;;;;;6.74;100.00;101341.53;5097757;27;96480;-27
2023/12/30 07:59:30;;;;;;;4.88;0.75;;;;;;;6.70;100.00;101331.84;5098448;27;96646;-27
2023/12/30 08:01:56;;;;;;;1.25;0.05;;;;;;;6.75;100.00;101333.41;5098275;27;98217;-27
2023/12/30 08:04:22;;;;;;;1.13;0.05;;;;;;;6.69;100.00;101325.56;5097808;27;98999;-28
2023/12/30 08:06:48;;;;;;;0.40;0.15;;;;;;;6.72;100.00;101336.22;5079767;27;96794;-28
2023/12/30 08:09:14;;;;;;;0.00;0.00;;;;;;;6.73;100.00;101332.59;5079803;27;97166;-28
2023/12/30 08:11:41;;;;;;;0.43;0.17;;;;;;;6.75;100.00;101338.78;5097708;27;98791;-28
2023/12/30 08:14:07;;;;;;;0.00;0.00;;;;;;;6.79;100.00;101340.44;5097971;27;97363;-28
2023/12/30 08:16:34;;;;;;;0.05;0.05;;;;;;;6.78;100.00;101333.28;5097610;27;96662;-28
2023/12/30 08:18:59;;;;;;;0.95;0.47;;;;;;;6.85;100.00;101342.00;5079531;27;96927;-27
2023/12/30 08:21:25;;;;;;;0.40;0.38;;;;;;;6.88;100.00;101341.88;5097534;27;103656;-28
2023/12/30 08:23:50;;;;;;;0.22;0.22;;;;;;;6.81;100.00;101325.06;5097467;27;97333;-28
2023/12/30 08:26:15;;;;;;;0.40;0.17;;;;;;;6.86;100.00;101334.81;5097289;27;96492;-28
2023/12/30 08:28:42;;;;;;;0.30;0.20;;;;;;;6.80;100.00;101330.53;5097448;27;96946;-27
2023/12/30 08:31:07;;;;;;;0.80;0.15;;;;;;;6.91;100.00;101346.28;5097304;27;99382;-27
2023/12/30 08:33:32;;;;;;;3.20;0.30;;;;;;;6.89;100.00;101340.06;5097849;27;99297;-28
2023/12/30 08:35:58;;;;;;;1.45;0.28;;;;;;;6.89;100.00;101345.44;5098261;27;96603;-28
2023/12/30 08:38:23;;;;;;;0.35;0.15;;;;;;;6.84;100.00;101324.13;5097754;27;96785;-28
2023/12/30 08:40:48;;;;;;;0.00;0.00;;;;;;;6.91;100.00;101341.78;5096402;27;99274;-27
2023/12/30 08:43:14;;;;;;;0.52;0.17;;;;;;;6.91;100.00;101344.50;5097540;27;97776;-28
2023/12/30 08:45:39;;;;;;;0.00;0.00;;;;;;;6.87;100.00;101325.81;5097549;27;96721;-28
2023/12/30 08:48:04;;;;;;;0.50;0.38;;;;;;;6.96;100.00;101346.97;5097694;27;96812;-28
2023/12/30 08:50:31;;;;;;;0.20;0.10;;;;;;;6.91;100.00;101341.78;5097062;27;97891;-29
2023/12/30 08:52:56;;;;;;;0.22;0.08;;;;;;;6.97;100.00;101348.75;5078356;27;99036;-28
2023/12/30 08:55:22;;;;;;;0.05;0.03;;;;;;;6.98;100.00;101356.78;5097630;27;96700;-28
2023/12/30 08:57:47;;;;;;;0.47;0.03;;;;;;;6.97;100.00;101348.75;5097347;27;96815;-28
2023/12/30 09:00:13;;;;;;;0.10;0.10;;;;;;;7.02;100.00;101355.69;5097538;27;97368;-28
2023/12/30 09:02:46;;;;;;;2.63;0.25;;;;;;;7.01;100.00;101351.25;5078075;27;101012;-28
2023/12/30 09:05:11;;;;;;;0.08;0.08;;;;;;;7.09;100.00;101353.66;5078212;27;96729;-28
2023/12/30 09:07:37;;;;;;;0.30;0.30;;;;;;;7.05;100.00;101351.13;5097516;27;96802;-28
2023/12/30 09:10:02;;;;;;;0.30;0.20;;;;;;;7.14;100.00;101367.81;5096682;27;104962;-28
2023/12/30 09:12:27;;;;;;;7.03;0.15;;;;;;;7.04;100.00;101355.66;5097293;27;97442;-28
2023/12/30 09:14:53;;;;;;;0.00;0.00;;;;;;;7.11;100.00;101359.88;5097141;27;96682;-29
2023/12/30 09:17:18;;;;;;;0.00;0.00;;;;;;;7.16;100.00;101357.88;5097248;27;96616;-28
2023/12/30 09:19:43;;;;;;;1.02;0.17;;;;;;;7.20;100.00;101366.72;5096485;27;97900;-35
2023/12/30 09:22:10;;;;;;;0.30;0.17;;;;;;;7.26;100.00;101366.47;5094589;27;97844;-28
2023/12/30 09:24:36;;;;;;;3.00;0.52;;;;;;;7.32;100.00;101376.13;5076007;27;97137;-30
2023/12/30 09:27:02;;;;;;;0.15;0.08;;;;;;;7.36;100.00;101369.66;5075649;27;96937;-29
2023/12/30 09:29:27;;;;;;;1.00;0.55;;;;;;;7.34;100.00;101371.53;5093517;27;99825;-32
2023/12/30 09:31:52;;;;;;;0.32;0.10;;;;;;;7.35;100.00;101376.88;5094058;27;97344;-30
2023/12/30 09:34:18;;;;;;;0.47;0.47;;;;;;;7.37;100.00;101371.44;5094477;27;97142;-28
2023/12/30 09:36:43;;;;;;;0.10;0.08;;;;;;;7.41;100.00;101368.56;5096044;27;96794;-27
2023/12/30 09:39:11;;;;;;;1.10;0.38;;;;;;;7.44;100.00;101376.50;5096302;27;97989;-27
2023/12/30 09:41:39;;;;;;;0.10;0.10;;;;;;;7.47;100.00;101383.59;5077747;27;100963;-28
2023/12/30 09:44:06;;;;;;;6.63;0.20;;;;;;;7.49;100.00;101379.03;5078130;27;97447;-28
2023/12/30 09:46:31;;;;;;;2.90;0.30;;;;;;;7.47;100.00;101369.25;5078517;27;96852;-28
2023/12/30 09:48:58;;;;;;;2.22;0.50;;;;;;;7.56;100.00;101395.84;5078000;27;97162;-28
2023/12/30 09:51:26;;;;;;;0.40;0.30;;;;;;;7.57;100.00;101395.75;5077247;27;101022;-28
2023/12/30 09:53:51;;;;;;;2.90;0.35;;;;;;;7.60;100.00;101390.25;5060349;27;96630;-28
2023/12/30 09:56:18;;;;;;;4.95;0.30;;;;;;;7.66;100.00;101398.09;5096651;27;96811;-28
2023/12/30 09:58:44;;;;;;;2.33;0.38;;;;;;;7.70;100.00;101392.56;5077264;27;99073;-28
2023/12/30 10:01:10;;;;;;;1.10;0.45;;;;;;;7.75;100.00;101402.22;5077158;27;101340;-28
2023/12/30 10:03:35;;;;;;;0.63;0.32;;;;;;;7.82;100.00;101402.88;5077094;27;98381;-28
2023/12/30 10:06:04;;;;;;;7.95;0.70;;;;;;;7.88;100.00;101402.59;5077818;27;96845;-29
2023/12/30 10:08:30;;;;;;;3.42;0.22;;;;;;;7.84;100.00;101406.34;5077258;27;101051;-27
2023/12/30 10:10:57;;;;;;;5.20;0.30;;;;;;;7.88;100.00;101408.88;5077170;27;101069;-28
2023/12/30 10:13:26;;;;;;;0.35;0.13;;;;;;;7.94;100.00;101407.75;5077468;27;96688;-29
2023/12/30 10:15:52;;;;;;;0.38;0.28;;;;;;;7.94;100.00;101396.09;5077786;27;96896;-28
2023/12/30 10:18:19;;;;;;;0.82;0.28;;;;;;;7.97;100.00;101394.13;5076688;27;100952;-28
2023/12/30 10:20:46;;;;;;;1.55;0.52;;;;;;;7.94;100.00;101383.47;5076941;27;100802;-28
2023/12/30 10:23:11;;;;;;;1.95;0.30;;;;;;;8.03;100.00;101398.38;5077474;27;96583;-28
2023/12/30 10:25:37;;;;;;;0.45;0.28;;;;;;;8.06;100.00;101404.53;5076211;27;96983;-31
2023/12/30 10:28:03;;;;;;;1.25;0.52;;;;;;;8.02;100.00;101385.84;5075309;27;100972;-28
2023/12/30 10:30:30;;;;;;;6.07;0.57;;;;;;;8.14;100.00;101393.41;5075076;27;100901;-27
2023/12/30 10:33:06;;;;;;;0.20;0.10;;;;;;;8.21;100.00;101394.91;5077412;27;96517;-28
2023/12/30 10:35:31;;;;;;;3.22;0.28;;;;;;;8.19;100.00;101374.31;5077727;27;96856;-28
2023/12/30 10:37:57;;;;;;;0.10;0.10;;;;;;;8.24;100.00;101378.56;5095150;27;99720;-28
2023/12/30 10:40:23;;;;;;;3.95;1.05;;;;;;;8.23;100.00;101366.03;5095289;27;98302;-28
2023/12/30 10:42:48;;;;;;;0.50;0.20;;;;;;;8.25;100.00;101366.84;5076751;27;96933;-27
2023/12/30 10:45:13;;;;;;;7.57;0.65;;;;;;;8.23;100.00;101357.94;5096273;27;96782;-28
2023/12/30 10:47:42;;;;;;;0.25;0.25;;;;;;;8.25;100.00;101369.53;5095308;27;97230;-28
2023/12/30 10:50:09;;;;;;;0.22;0.22;;;;;;;8.23;100.00;101357.06;5075334;27;100648;-34
2023/12/30 10:52:44;;;;;;;1.58;0.55;;;;;;;8.29;100.00;101360.38;5078269;27;96865;-28
2023/12/30 10:55:10;;;;;;;5.70;1.23;;;;;;;8.24;100.00;101359.66;5099260;27;96859;-28
2023/12/30 10:57:37;;;;;;;0.68;0.57;;;;;;;8.28;100.00;101353.22;5098559;27;97313;-28
2023/12/30 11:00:09;;;;;;;2.13;0.35;;;;;;;8.27;100.00;101329.88;5080810;27;98963;-29
2023/12/30 11:02:37;;;;;;;4.28;0.38;;;;;;;8.33;100.00;101342.22;5099232;27;96642;-30
2023/12/30 11:05:09;;;;;;;1.67;0.75;;;;;;;8.44;100.00;101345.34;5097076;27;97084;-32
2023/12/30 11:07:35;;;;;;;1.13;0.85;;;;;;;8.41;100.00;101336.50;5077470;27;100826;-30
2023/12/30 11:10:00;;;;;;;0.82;0.30;;;;;;;8.48;100.00;101349.66;5096532;27;97311;-33
2023/12/30 11:12:27;;;;;;;1.58;0.73;;;;;;;8.47;100.00;101337.09;5096156;27;97887;-28
2023/12/30 11:14:53;;;;;;;2.10;0.80;;;;;;;8.49;100.00;101327.13;5077928;27;96840;-28
2023/12/30 11:17:42;;;;;;;2.22;0.80;;;;;;;8.57;100.00;101331.28;5096548;27;97950;-29
2023/12/30 11:20:21;;;;;;;2.75;1.17;;;;;;;8.59;100.00;101326.72;5079572;27;100801;-27
2023/12/30 11:22:47;;;;;;;1.98;1.10;;;;;;;8.67;100.00;101332.63;5078024;27;96971;-27